Time;durP1;ratioP1;P1;durP2;ratioP2;P2;SDS_P1;SDS_P2;PMS_P1;PMS_P2;Temp;Humidity;BMP_temperature;BMP_pressure;BME280_temperature;BME280_humidity;BME280_pressure;Samples;Min_cycle;Max_cycle;Signal;HPM_P1;HPM_P2
2023/08/12 00:00:10;;;;;;;10.70;9.60;;;26.10;66.80;;;;;;5030119;28;20033;-54
2023/08/12 00:02:42;;;;;;;9.55;8.60;;;26.10;67.00;;;;;;5023513;28;20048;-54
2023/08/12 00:05:13;;;;;;;13.35;9.63;;;26.10;68.00;;;;;;5027363;28;20037;-53
2023/08/12 00:07:46;;;;;;;9.70;8.73;;;26.10;67.00;;;;;;5029636;28;20045;-56
2023/08/12 00:10:13;;;;;;;10.77;9.55;;;26.10;67.10;;;;;;5028406;28;20075;-54
2023/08/12 00:12:40;;;;;;;10.95;9.85;;;26.10;67.90;;;;;;5029079;28;20073;-54
2023/08/12 00:15:11;;;;;;;10.98;9.80;;;26.00;67.20;;;;;;5027218;28;20048;-55
2023/08/12 00:17:44;;;;;;;11.90;8.65;;;26.10;67.30;;;;;;5033739;28;20067;-55
2023/08/12 00:20:13;;;;;;;10.35;9.25;;;26.10;67.40;;;;;;5028745;28;20063;-53
2023/08/12 00:22:47;;;;;;;10.60;9.23;;;26.00;67.50;;;;;;5028138;28;20052;-51
2023/08/12 00:25:15;;;;;;;9.80;8.88;;;26.00;67.30;;;;;;5030607;28;20124;-50
2023/08/12 00:27:44;;;;;;;11.45;10.35;;;26.00;67.40;;;;;;5033493;28;20133;-55
2023/08/12 00:30:20;;;;;;;11.82;9.88;;;26.00;67.50;;;;;;5029310;28;20942;-55
2023/08/12 00:32:51;;;;;;;11.80;10.43;;;26.00;67.70;;;;;;5028695;28;20507;-54
2023/08/12 00:35:19;;;;;;;11.35;10.02;;;26.00;67.40;;;;;;5001367;28;20108;-53
2023/08/12 00:37:48;;;;;;;11.50;10.38;;;26.00;67.60;;;;;;5013523;28;20136;-54
2023/08/12 00:40:15;;;;;;;11.68;10.48;;;26.00;67.60;;;;;;5016340;28;20489;-53
2023/08/12 00:42:44;;;;;;;12.50;11.18;;;25.90;67.80;;;;;;5010312;28;20132;-53
2023/08/12 00:45:13;;;;;;;12.45;11.20;;;25.90;67.90;;;;;;5009968;28;20373;-52
2023/08/12 00:47:50;;;;;;;11.45;10.18;;;25.90;67.90;;;;;;5028983;28;20436;-53
2023/08/12 00:50:17;;;;;;;11.05;9.98;;;25.90;68.20;;;;;;5031013;28;20057;-53
2023/08/12 00:52:47;;;;;;;10.50;9.40;;;25.90;67.80;;;;;;5010479;28;20444;-55
2023/08/12 00:55:17;;;;;;;11.90;10.70;;;25.90;68.10;;;;;;5010166;28;20041;-54
2023/08/12 00:57:44;;;;;;;12.70;9.82;;;25.90;68.30;;;;;;5011264;28;20045;-54
2023/08/12 01:00:20;;;;;;;11.48;9.90;;;25.90;68.30;;;;;;5009116;28;20132;-50
2023/08/12 01:02:48;;;;;;;11.40;10.25;;;25.90;68.30;;;;;;5029265;28;20041;-51
2023/08/12 01:05:16;;;;;;;10.35;9.15;;;25.90;68.20;;;;;;5007853;28;20038;-54
2023/08/12 01:07:45;;;;;;;13.68;10.70;;;25.90;68.10;;;;;;5008606;28;20111;-56
2023/08/12 01:10:15;;;;;;;10.60;9.50;;;25.80;68.00;;;;;;5007552;28;20057;-54
2023/08/12 01:13:10;;;;;;;10.52;9.40;;;25.90;68.00;;;;;;5011179;28;20112;-51
2023/08/12 01:15:38;;;;;;;10.43;9.35;;;25.80;68.60;;;;;;5007191;28;20120;-54
2023/08/12 01:18:09;;;;;;;13.88;10.65;;;25.80;68.10;;;;;;5011243;28;20046;-52
2023/08/12 01:20:41;;;;;;;12.07;10.15;;;25.80;68.20;;;;;;5007706;28;20108;-50
2023/08/12 01:23:14;;;;;;;10.48;9.48;;;25.80;68.00;;;;;;5008828;28;20050;-52
2023/08/12 01:25:42;;;;;;;10.52;9.00;;;25.80;68.30;;;;;;5007627;28;20049;-53
2023/08/12 01:28:08;;;;;;;11.20;9.63;;;25.80;68.40;;;;;;5028000;28;20065;-54
2023/08/12 01:30:44;;;;;;;12.02;10.02;;;25.70;68.10;;;;;;5008384;28;20503;-52
2023/08/12 01:33:24;;;;;;;10.57;9.38;;;25.70;68.40;;;;;;5028222;28;20095;-54
2023/08/12 01:35:57;;;;;;;11.00;9.82;;;25.70;68.50;;;;;;5009584;28;20073;-51
2023/08/12 01:38:28;;;;;;;12.73;9.63;;;25.70;68.40;;;;;;5025380;28;20408;-56
2023/08/12 01:40:58;;;;;;;11.93;10.00;;;25.70;68.30;;;;;;5012868;28;20500;-55
2023/08/12 01:43:28;;;;;;;10.70;9.60;;;25.60;68.10;;;;;;5027704;28;20096;-54
2023/08/12 01:45:56;;;;;;;9.93;8.98;;;25.60;68.30;;;;;;5027430;28;20042;-51
2023/08/12 01:48:23;;;;;;;12.40;10.77;;;25.60;68.40;;;;;;5038275;28;20044;-55
2023/08/12 01:50:54;;;;;;;11.10;9.95;;;25.60;68.40;;;;;;5040004;28;20046;-54
2023/08/12 01:53:25;;;;;;;11.88;10.13;;;25.60;68.60;;;;;;5025348;28;20049;-52
2023/08/12 01:55:52;;;;;;;10.93;9.88;;;25.60;68.50;;;;;;5034330;28;20481;-53
2023/08/12 01:58:19;;;;;;;10.70;9.60;;;25.60;68.50;;;;;;5010509;28;20504;-54
2023/08/12 02:00:45;;;;;;;11.30;10.10;;;25.50;68.60;;;;;;5021160;28;20049;-54
2023/08/12 02:03:14;;;;;;;13.38;9.93;;;25.50;68.60;;;;;;5031402;28;20175;-51
2023/08/12 02:05:43;;;;;;;10.50;9.45;;;25.50;68.60;;;;;;5030962;28;20147;-54
2023/08/12 02:08:13;;;;;;;10.95;9.85;;;25.50;68.60;;;;;;5035416;28;20541;-54
2023/08/12 02:10:40;;;;;;;10.95;9.85;;;25.50;68.80;;;;;;5041852;28;20045;-50
2023/08/12 02:13:09;;;;;;;12.63;10.10;;;25.50;68.80;;;;;;5012869;28;20049;-56
2023/08/12 02:15:36;;;;;;;11.38;10.00;;;25.50;69.10;;;;;;5013443;28;20042;-53
2023/08/12 02:18:05;;;;;;;10.00;9.00;;;25.50;68.90;;;;;;5014332;28;20045;-54
2023/08/12 02:20:38;;;;;;;11.80;9.98;;;25.50;68.90;;;;;;5030598;28;20526;-50
2023/08/12 02:23:05;;;;;;;11.10;9.63;;;25.50;69.20;;;;;;5012349;28;20708;-51
2023/08/12 02:25:32;;;;;;;12.82;9.75;;;25.50;69.00;;;;;;5038558;28;20041;-54
2023/08/12 02:27:58;;;;;;;10.25;9.25;;;25.40;69.10;;;;;;5037558;28;20128;-53
2023/08/12 02:30:25;;;;;;;10.93;9.45;;;25.50;69.20;;;;;;5035386;28;20132;-54
2023/08/12 02:32:53;;;;;;;11.27;9.25;;;25.40;69.10;;;;;;5010681;28;20045;-53
2023/08/12 02:35:20;;;;;;;10.98;9.93;;;25.40;69.10;;;;;;5010631;28;20049;-54
2023/08/12 02:37:50;;;;;;;10.95;9.82;;;25.40;69.20;;;;;;5030170;28;20140;-55
2023/08/12 02:40:18;;;;;;;12.85;10.50;;;25.40;69.30;;;;;;5036172;28;20099;-54
2023/08/12 02:42:44;;;;;;;9.98;8.93;;;25.40;69.20;;;;;;5024606;28;20558;-51
2023/08/12 02:45:11;;;;;;;10.85;9.77;;;25.40;69.40;;;;;;5034150;28;20060;-54
2023/08/12 02:47:38;;;;;;;12.70;10.27;;;25.40;69.30;;;;;;5030816;28;20029;-53
2023/08/12 02:50:07;;;;;;;11.27;9.65;;;25.30;69.30;;;;;;5015462;28;20049;-50
2023/08/12 02:52:40;;;;;;;11.40;10.18;;;25.30;69.40;;;;;;5038915;28;20037;-52
2023/08/12 02:55:08;;;;;;;11.27;9.80;;;25.30;69.30;;;;;;5035925;28;20080;-52
2023/08/12 02:57:35;;;;;;;11.00;9.63;;;25.30;69.30;;;;;;5012595;28;20041;-54
2023/08/12 03:00:04;;;;;;;11.90;10.70;;;25.30;69.40;;;;;;5030075;28;20041;-54
2023/08/12 03:02:31;;;;;;;11.00;9.70;;;25.30;69.40;;;;;;5032680;28;20041;-54
2023/08/12 03:04:57;;;;;;;13.98;10.02;;;25.30;69.40;;;;;;5010270;28;20496;-52
2023/08/12 03:07:24;;;;;;;10.75;9.75;;;25.30;69.50;;;;;;5012304;28;20045;-54
2023/08/12 03:09:53;;;;;;;11.43;9.80;;;25.30;69.70;;;;;;5012352;28;20057;-54
2023/08/12 03:12:20;;;;;;;10.52;9.35;;;25.20;69.70;;;;;;5011828;28;20339;-53
2023/08/12 03:14:46;;;;;;;11.52;10.38;;;25.20;69.90;;;;;;5029704;28;20053;-53
2023/08/12 03:17:19;;;;;;;11.85;10.18;;;25.30;70.10;;;;;;5011864;28;20042;-51
2023/08/12 03:19:47;;;;;;;10.85;9.75;;;25.20;70.10;;;;;;5021489;28;20508;-55
2023/08/12 03:22:18;;;;;;;11.57;10.38;;;25.20;70.00;;;;;;5029129;28;20045;-55
2023/08/12 03:24:53;;;;;;;11.32;10.27;;;25.30;70.30;;;;;;5030248;28;20053;-54
2023/08/12 03:27:19;;;;;;;11.50;10.35;;;25.20;70.10;;;;;;5010741;28;20092;-54
2023/08/12 03:29:46;;;;;;;10.40;9.35;;;25.20;70.20;;;;;;5012514;28;20041;-52
2023/08/12 03:32:20;;;;;;;11.90;10.23;;;25.20;70.40;;;;;;5012298;28;20045;-54
2023/08/12 03:34:47;;;;;;;11.55;10.38;;;25.20;70.10;;;;;;5012704;28;20045;-51
2023/08/12 03:37:18;;;;;;;16.83;11.25;;;25.20;70.00;;;;;;5013025;28;20115;-54
2023/08/12 03:39:49;;;;;;;14.13;9.88;;;25.20;70.10;;;;;;5032955;22;20188;-53
2023/08/12 03:42:16;;;;;;;11.40;10.10;;;25.20;70.10;;;;;;4986712;28;20428;-53
2023/08/12 03:44:46;;;;;;;10.02;9.00;;;25.30;70.00;;;;;;4989311;28;20049;-52
2023/08/12 03:47:13;;;;;;;11.15;10.05;;;25.10;69.70;;;;;;4972009;28;20592;-53
2023/08/12 03:49:45;;;;;;;11.85;9.80;;;25.10;69.80;;;;;;4994129;28;20109;-53
2023/08/12 03:52:14;;;;;;;10.95;9.85;;;25.10;70.10;;;;;;4972301;28;20129;-51
2023/08/12 03:54:44;;;;;;;10.40;9.20;;;25.10;70.40;;;;;;4986745;28;20042;-53
2023/08/12 03:57:13;;;;;;;12.23;10.27;;;25.00;70.20;;;;;;4987298;28;20118;-54
2023/08/12 03:59:43;;;;;;;14.40;10.18;;;25.00;70.70;;;;;;4984890;28;20639;-50
2023/08/12 04:02:10;;;;;;;10.95;9.85;;;25.00;70.50;;;;;;4992800;28;22174;-51
2023/08/12 04:04:43;;;;;;;10.90;9.75;;;25.00;70.60;;;;;;4991315;28;20038;-50
2023/08/12 04:07:13;;;;;;;10.32;8.40;;;25.10;70.90;;;;;;4988565;28;20128;-51
2023/08/12 04:09:41;;;;;;;11.52;10.32;;;25.00;70.70;;;;;;4980765;28;20078;-52
2023/08/12 04:12:07;;;;;;;10.70;9.70;;;25.10;70.80;;;;;;4988393;28;20501;-52
2023/08/12 04:14:34;;;;;;;12.95;10.30;;;25.10;70.80;;;;;;4990857;28;20046;-49
2023/08/12 04:17:04;;;;;;;10.98;9.82;;;25.10;71.00;;;;;;4990772;28;20077;-50
2023/08/12 04:19:33;;;;;;;10.50;9.43;;;25.10;71.00;;;;;;4972500;28;20070;-53
2023/08/12 04:22:02;;;;;;;10.85;9.85;;;25.00;71.00;;;;;;4989074;28;20054;-51
2023/08/12 04:24:31;;;;;;;11.45;10.30;;;25.00;70.80;;;;;;4972118;28;20125;-50
2023/08/12 04:26:57;;;;;;;12.30;11.00;;;25.00;71.10;;;;;;4991708;28;20034;-53
2023/08/12 04:29:28;;;;;;;10.13;9.13;;;25.00;71.00;;;;;;4969164;28;20065;-53
2023/08/12 04:31:55;;;;;;;9.95;9.05;;;25.10;71.20;;;;;;4994309;28;20078;-53
2023/08/12 04:34:22;;;;;;;12.02;9.80;;;25.00;71.00;;;;;;4984511;28;20532;-53
2023/08/12 04:36:51;;;;;;;12.02;10.05;;;25.00;71.00;;;;;;4989843;28;20049;-53
2023/08/12 04:39:22;;;;;;;12.38;10.88;;;25.10;71.10;;;;;;4973574;28;20524;-52
2023/08/12 04:41:48;;;;;;;13.13;10.23;;;25.00;71.10;;;;;;4991136;28;20045;-53
2023/08/12 04:44:18;;;;;;;11.77;10.48;;;25.00;70.90;;;;;;4966866;28;20042;-53
2023/08/12 04:46:45;;;;;;;13.80;11.00;;;25.00;71.00;;;;;;4972249;28;20045;-54
2023/08/12 04:49:11;;;;;;;10.23;9.20;;;25.10;71.00;;;;;;4972679;28;20050;-54
2023/08/12 04:51:41;;;;;;;12.82;10.80;;;25.00;71.10;;;;;;4988470;28;20046;-54
2023/08/12 04:54:14;;;;;;;11.25;9.85;;;25.00;71.00;;;;;;4972833;28;20121;-54
2023/08/12 04:56:43;;;;;;;15.23;10.05;;;25.00;71.20;;;;;;4973130;28;20046;-54
2023/08/12 04:59:12;;;;;;;11.90;10.10;;;25.00;71.20;;;;;;4986452;28;20053;-52
2023/08/12 05:01:42;;;;;;;11.50;9.05;;;25.00;71.20;;;;;;4979028;28;20058;-55
2023/08/12 05:04:29;;;;;;;10.43;9.30;;;25.00;71.40;;;;;;4990425;28;20030;-53
2023/08/12 05:06:56;;;;;;;12.23;10.13;;;25.00;71.10;;;;;;4988354;28;20030;-52
2023/08/12 05:09:25;;;;;;;11.25;10.07;;;25.00;71.30;;;;;;4972565;28;20039;-53
2023/08/12 05:11:56;;;;;;;12.40;10.75;;;25.10;71.40;;;;;;4988837;28;20042;-53
2023/08/12 05:14:23;;;;;;;11.80;10.60;;;25.10;71.40;;;;;;4991399;28;20066;-54
2023/08/12 05:16:53;;;;;;;11.20;10.10;;;25.10;71.60;;;;;;4996103;28;20045;-54
2023/08/12 05:19:19;;;;;;;14.23;10.55;;;25.10;71.80;;;;;;4993889;28;20120;-54
2023/08/12 05:21:46;;;;;;;11.73;10.15;;;25.10;71.60;;;;;;4990316;28;20046;-50
2023/08/12 05:24:15;;;;;;;11.95;10.75;;;25.10;71.50;;;;;;4996725;28;20104;-52
2023/08/12 05:26:48;;;;;;;10.80;9.65;;;25.10;71.50;;;;;;4994088;28;20044;-53
2023/08/12 05:29:17;;;;;;;10.52;9.40;;;25.20;71.40;;;;;;4993220;28;20098;-52
2023/08/12 05:31:46;;;;;;;9.98;8.82;;;25.20;71.30;;;;;;4998442;28;20069;-53
2023/08/12 05:34:17;;;;;;;10.98;8.63;;;25.20;71.20;;;;;;4992020;28;20054;-51
2023/08/12 05:36:48;;;;;;;10.30;8.10;;;25.10;71.20;;;;;;4990666;28;20066;-54
2023/08/12 05:39:15;;;;;;;11.63;8.07;;;25.10;71.20;;;;;;4996134;28;20078;-54
2023/08/12 05:41:44;;;;;;;9.07;8.18;;;25.10;71.00;;;;;;4992238;28;20112;-54
2023/08/12 05:44:18;;;;;;;9.07;7.38;;;25.10;71.10;;;;;;4991904;28;20858;-52
2023/08/12 05:46:45;;;;;;;8.48;7.57;;;25.10;71.10;;;;;;4990322;28;20882;-53
2023/08/12 05:49:13;;;;;;;8.95;7.35;;;25.10;71.20;;;;;;4994799;28;20050;-54
2023/08/12 05:51:41;;;;;;;9.18;7.63;;;25.10;71.20;;;;;;4992039;28;20408;-54
2023/08/12 05:54:08;;;;;;;8.60;7.57;;;25.00;71.30;;;;;;4989672;28;20109;-49
2023/08/12 05:56:38;;;;;;;10.15;6.90;;;25.00;71.30;;;;;;4990607;28;20125;-53
2023/08/12 05:59:07;;;;;;;7.68;6.18;;;25.00;71.50;;;;;;4989197;28;20129;-52
2023/08/12 06:01:36;;;;;;;9.68;6.82;;;25.10;71.50;;;;;;4995103;28;20069;-54
2023/08/12 06:04:03;;;;;;;6.93;6.28;;;25.20;71.60;;;;;;4990228;28;20613;-53
2023/08/12 06:06:31;;;;;;;7.57;4.72;;;24.90;71.40;;;;;;4991994;28;20086;-51
2023/08/12 06:08:58;;;;;;;5.95;4.85;;;24.90;71.20;;;;;;4997398;28;20061;-52
2023/08/12 06:11:25;;;;;;;4.97;3.95;;;24.90;71.20;;;;;;4983957;28;20058;-54
2023/08/12 06:13:53;;;;;;;5.85;4.28;;;24.90;71.30;;;;;;4991247;28;20065;-53
2023/08/12 06:16:20;;;;;;;4.93;3.78;;;24.90;71.20;;;;;;4986740;28;20089;-50
2023/08/12 06:18:47;;;;;;;3.75;3.22;;;24.90;71.20;;;;;;4990952;28;20097;-54
2023/08/12 06:21:13;;;;;;;4.95;3.47;;;24.80;71.20;;;;;;4990811;28;20069;-52
2023/08/12 06:23:44;;;;;;;3.75;3.17;;;24.80;71.30;;;;;;4991399;28;20109;-54
2023/08/12 06:26:11;;;;;;;3.85;3.47;;;24.80;71.40;;;;;;4976222;28;20046;-53
2023/08/12 06:28:37;;;;;;;3.80;3.13;;;24.80;71.40;;;;;;4988992;28;20563;-51
2023/08/12 06:31:07;;;;;;;3.10;2.90;;;24.70;71.20;;;;;;4991353;28;20046;-53
2023/08/12 06:33:34;;;;;;;3.05;2.80;;;24.70;71.20;;;;;;4988545;28;20070;-53
2023/08/12 06:36:01;;;;;;;3.47;3.00;;;24.70;71.20;;;;;;4991166;28;20053;-54
2023/08/12 06:38:30;;;;;;;2.85;2.65;;;24.70;71.30;;;;;;4982934;28;20465;-53
2023/08/12 06:40:56;;;;;;;3.20;2.58;;;24.70;71.30;;;;;;4974899;28;20062;-53
2023/08/12 06:43:23;;;;;;;3.45;2.60;;;24.70;71.60;;;;;;4986654;28;20614;-53
2023/08/12 06:45:52;;;;;;;3.47;2.90;;;24.70;71.60;;;;;;4989554;28;20578;-52
2023/08/12 06:48:18;;;;;;;3.53;2.45;;;24.70;71.60;;;;;;4990671;28;20101;-53
2023/08/12 06:50:45;;;;;;;3.00;2.40;;;24.80;71.80;;;;;;4987324;28;20579;-51
2023/08/12 06:53:12;;;;;;;3.55;2.35;;;24.80;71.80;;;;;;4990705;28;20131;-53
2023/08/12 06:55:44;;;;;;;3.00;2.70;;;24.90;72.10;;;;;;4993319;28;20129;-54
2023/08/12 06:58:11;;;;;;;2.53;2.33;;;24.90;72.30;;;;;;4991582;28;20070;-53
2023/08/12 07:00:37;;;;;;;2.83;2.20;;;25.00;71.80;;;;;;4991220;28;20038;-54
2023/08/12 07:03:04;;;;;;;4.18;2.20;;;25.10;71.80;;;;;;4992167;28;20061;-54
2023/08/12 07:05:31;;;;;;;2.30;2.10;;;25.10;71.40;;;;;;4985650;28;20038;-53
2023/08/12 07:07:58;;;;;;;3.22;2.13;;;25.20;71.20;;;;;;4987762;28;20049;-54
2023/08/12 07:10:24;;;;;;;2.20;2.03;;;25.20;71.00;;;;;;4991057;28;20505;-54
2023/08/12 07:12:55;;;;;;;3.03;1.88;;;25.30;71.00;;;;;;4990024;28;20049;-54
2023/08/12 07:15:21;;;;;;;2.15;1.95;;;25.30;70.80;;;;;;4989622;28;20504;-52
2023/08/12 07:17:49;;;;;;;2.63;1.98;;;25.30;70.60;;;;;;4989251;28;20042;-53
2023/08/12 07:20:16;;;;;;;2.17;1.95;;;25.30;70.40;;;;;;4989642;28;20104;-53
2023/08/12 07:22:43;;;;;;;4.85;1.60;;;25.30;70.20;;;;;;4988375;28;20711;-54
2023/08/12 07:25:10;;;;;;;1.80;1.70;;;25.30;70.10;;;;;;4989932;28;20035;-54
2023/08/12 07:27:36;;;;;;;2.80;1.88;;;25.30;70.30;;;;;;4992324;28;20074;-52
2023/08/12 07:30:03;;;;;;;3.13;1.83;;;25.30;70.40;;;;;;4992322;28;20073;-53
2023/08/12 07:32:30;;;;;;;3.92;1.50;;;25.30;70.50;;;;;;4988354;28;20073;-55
2023/08/12 07:34:57;;;;;;;2.13;1.60;;;25.30;70.40;;;;;;4987575;28;20045;-54
2023/08/12 07:37:23;;;;;;;2.45;1.67;;;25.30;70.50;;;;;;4991598;28;20122;-52
2023/08/12 07:39:54;;;;;;;3.03;1.83;;;25.30;70.40;;;;;;4989260;28;20041;-53
2023/08/12 07:42:20;;;;;;;1.52;1.27;;;25.30;70.40;;;;;;4990074;28;20093;-54
2023/08/12 07:44:47;;;;;;;1.60;1.50;;;25.30;70.10;;;;;;4988182;28;20070;-52
2023/08/12 07:47:15;;;;;;;2.05;1.75;;;25.30;70.30;;;;;;4988121;28;20097;-52
2023/08/12 07:49:43;;;;;;;1.30;1.20;;;25.30;70.20;;;;;;4990253;28;20089;-54
2023/08/12 07:52:09;;;;;;;2.15;1.48;;;25.30;70.00;;;;;;4992625;28;20073;-54
2023/08/12 07:54:37;;;;;;;1.67;1.58;;;25.30;70.00;;;;;;4989527;28;20046;-53
2023/08/12 07:57:03;;;;;;;1.60;1.50;;;25.40;70.10;;;;;;4991559;28;20088;-54
2023/08/12 07:59:30;;;;;;;1.83;1.15;;;25.40;70.40;;;;;;4987836;28;20129;-54
2023/08/12 08:01:57;;;;;;;1.33;1.23;;;25.40;70.20;;;;;;4986185;28;20566;-54
2023/08/12 08:04:23;;;;;;;1.40;1.30;;;25.50;70.60;;;;;;4988856;28;20113;-53
2023/08/12 08:06:50;;;;;;;2.85;1.20;;;25.50;70.20;;;;;;4991457;28;20038;-53
2023/08/12 08:09:17;;;;;;;3.45;1.58;;;25.60;70.10;;;;;;4986724;28;20050;-53
2023/08/12 08:11:44;;;;;;;1.42;1.20;;;25.60;69.90;;;;;;4990805;28;20106;-54
2023/08/12 08:14:11;;;;;;;1.52;1.10;;;25.60;70.00;;;;;;4989500;28;20077;-49
2023/08/12 08:16:40;;;;;;;1.58;1.35;;;25.60;69.80;;;;;;4967208;28;20060;-51
2023/08/12 08:19:09;;;;;;;2.50;1.50;;;25.70;69.60;;;;;;4985396;28;20050;-52
2023/08/12 08:21:39;;;;;;;1.23;1.10;;;25.70;69.60;;;;;;4987883;28;20045;-54
2023/08/12 08:24:08;;;;;;;4.38;1.52;;;25.70;69.20;;;;;;4988446;28;20402;-52
2023/08/12 08:26:35;;;;;;;1.38;1.27;;;25.70;69.00;;;;;;4990606;28;20066;-54
2023/08/12 08:29:02;;;;;;;1.25;1.00;;;25.60;69.10;;;;;;4985010;28;20038;-53
2023/08/12 08:31:28;;;;;;;2.15;1.00;;;25.60;69.30;;;;;;4989035;28;20512;-54
2023/08/12 08:33:55;;;;;;;2.20;1.05;;;25.60;69.00;;;;;;4989489;28;20146;-53
2023/08/12 08:36:22;;;;;;;1.27;0.90;;;25.60;69.10;;;;;;4988397;28;20142;-53
2023/08/12 08:38:49;;;;;;;1.10;1.10;;;25.50;69.10;;;;;;4985744;28;20038;-53
2023/08/12 08:41:17;;;;;;;1.10;1.00;;;25.40;68.90;;;;;;4989334;28;20039;-53
2023/08/12 08:43:47;;;;;;;1.50;0.80;;;25.40;69.30;;;;;;4989252;28;20085;-52
2023/08/12 08:46:17;;;;;;;1.00;1.00;;;25.30;69.80;;;;;;4992279;28;20537;-53
2023/08/12 08:48:44;;;;;;;1.63;0.93;;;25.30;70.00;;;;;;4992215;28;20042;-53
2023/08/12 08:51:12;;;;;;;0.98;0.98;;;25.30;70.10;;;;;;4993936;28;20412;-53
2023/08/12 08:53:39;;;;;;;1.48;1.00;;;25.20;70.10;;;;;;4993573;28;20042;-55
2023/08/12 08:56:08;;;;;;;1.15;1.02;;;25.20;70.20;;;;;;4990901;28;20084;-54
2023/08/12 08:58:41;;;;;;;1.65;1.20;;;25.10;70.30;;;;;;4991152;28;20061;-53
2023/08/12 09:01:08;;;;;;;1.20;1.10;;;25.10;70.30;;;;;;4993544;28;20441;-53
2023/08/12 09:03:37;;;;;;;1.27;1.17;;;25.10;70.30;;;;;;4992694;28;20089;-54
2023/08/12 09:06:08;;;;;;;1.35;0.70;;;25.00;70.40;;;;;;4994341;28;20113;-53
2023/08/12 09:08:37;;;;;;;1.17;1.05;;;25.00;70.20;;;;;;4987966;28;20510;-52
2023/08/12 09:11:04;;;;;;;1.95;0.77;;;25.00;70.50;;;;;;4992748;28;20050;-55
2023/08/12 09:13:31;;;;;;;1.92;0.90;;;25.00;70.50;;;;;;4993191;28;20563;-53
2023/08/12 09:15:57;;;;;;;1.10;1.10;;;25.00;70.70;;;;;;4991452;28;20070;-54
2023/08/12 09:18:25;;;;;;;1.55;1.05;;;25.00;71.20;;;;;;4997031;28;20034;-53
2023/08/12 09:20:53;;;;;;;1.00;0.82;;;25.00;72.00;;;;;;4993356;28;20038;-53
2023/08/12 09:23:20;;;;;;;2.25;1.10;;;25.10;72.40;;;;;;4992427;28;20038;-54
2023/08/12 09:25:47;;;;;;;0.88;0.88;;;25.10;72.20;;;;;;4994118;28;20471;-52
2023/08/12 09:28:16;;;;;;;2.05;1.13;;;25.20;72.60;;;;;;4993170;28;20128;-49
2023/08/12 09:30:52;;;;;;;1.13;0.90;;;25.30;72.90;;;;;;4990073;28;20588;-53
2023/08/12 09:33:26;;;;;;;1.02;1.02;;;25.50;73.50;;;;;;4991047;28;20046;-54
2023/08/12 09:35:53;;;;;;;0.98;0.93;;;25.60;72.60;;;;;;4992236;28;20065;-54
2023/08/12 09:38:21;;;;;;;0.68;0.68;;;25.60;71.80;;;;;;4990367;28;20125;-54
2023/08/12 09:40:48;;;;;;;1.52;0.90;;;25.70;71.60;;;;;;4992194;28;20129;-54
2023/08/12 09:43:16;;;;;;;0.98;0.63;;;25.70;71.10;;;;;;4992050;28;20050;-53
2023/08/12 09:45:45;;;;;;;0.82;0.82;;;25.80;71.10;;;;;;4989837;28;20057;-53
2023/08/12 09:48:12;;;;;;;0.80;0.80;;;25.80;71.70;;;;;;4993254;28;20046;-53
2023/08/12 09:50:42;;;;;;;0.70;0.70;;;25.90;71.70;;;;;;4993188;28;20402;-53
2023/08/12 09:53:12;;;;;;;0.65;0.65;;;25.90;71.90;;;;;;4988883;28;20062;-53
2023/08/12 09:55:41;;;;;;;0.50;0.50;;;26.00;71.20;;;;;;4992444;28;20043;-54
2023/08/12 09:58:10;;;;;;;0.75;0.75;;;26.10;70.50;;;;;;4993720;28;20053;-54
2023/08/12 10:00:36;;;;;;;1.17;0.50;;;26.20;70.40;;;;;;4990561;28;20413;-53
2023/08/12 10:03:04;;;;;;;0.40;0.40;;;26.20;70.40;;;;;;4992000;28;20065;-51
2023/08/12 10:05:34;;;;;;;0.50;0.40;;;26.20;70.60;;;;;;4991570;28;20035;-53
2023/08/12 10:08:03;;;;;;;0.40;0.40;;;26.20;70.30;;;;;;4991056;28;20041;-53
2023/08/12 10:10:32;;;;;;;0.50;0.50;;;26.20;70.20;;;;;;4997208;28;20109;-54
2023/08/12 10:12:59;;;;;;;0.60;0.43;;;26.20;70.40;;;;;;4992068;28;20046;-53
2023/08/12 10:15:29;;;;;;;0.60;0.40;;;26.30;70.70;;;;;;4988188;28;20065;-53
2023/08/12 10:17:56;;;;;;;0.85;0.47;;;26.30;70.90;;;;;;4994481;28;20054;-53
2023/08/12 10:20:24;;;;;;;0.55;0.50;;;26.30;70.80;;;;;;4993126;28;20050;-54
2023/08/12 10:22:51;;;;;;;1.05;0.50;;;26.40;70.90;;;;;;4987901;28;20092;-51
2023/08/12 10:25:22;;;;;;;0.40;0.40;;;26.60;71.40;;;;;;4991499;28;20043;-53
2023/08/12 10:27:49;;;;;;;0.60;0.60;;;26.60;70.20;;;;;;4991485;28;20049;-53
2023/08/12 10:30:16;;;;;;;0.70;0.50;;;26.70;70.20;;;;;;4989413;28;20046;-54
2023/08/12 10:32:45;;;;;;;0.50;0.50;;;26.80;69.50;;;;;;4984869;28;20141;-54
2023/08/12 10:35:12;;;;;;;0.50;0.50;;;27.00;69.70;;;;;;4997198;28;20101;-53
2023/08/12 10:37:39;;;;;;;0.40;0.40;;;27.00;69.10;;;;;;4991325;28;20074;-54
2023/08/12 10:40:20;;;;;;;0.52;0.52;;;27.10;69.40;;;;;;4992945;28;20113;-53
2023/08/12 10:42:49;;;;;;;0.98;0.47;;;27.20;68.30;;;;;;4993381;28;20038;-53
2023/08/12 10:45:17;;;;;;;0.52;0.40;;;27.30;68.00;;;;;;4992448;28;20145;-53
2023/08/12 10:48:00;;;;;;;1.08;0.55;;;27.40;67.90;;;;;;4992240;28;20041;-54
2023/08/12 10:50:26;;;;;;;0.40;0.40;;;27.40;68.30;;;;;;4991301;28;20049;-52
2023/08/12 10:52:54;;;;;;;0.43;0.43;;;27.40;67.90;;;;;;4986612;28;20125;-53
2023/08/12 10:55:25;;;;;;;0.82;0.47;;;27.50;67.50;;;;;;4991577;28;20074;-52
2023/08/12 10:57:54;;;;;;;0.68;0.57;;;27.50;67.30;;;;;;4991393;28;20128;-54
2023/08/12 11:00:25;;;;;;;0.47;0.47;;;27.50;66.60;;;;;;4987385;28;20046;-53
2023/08/12 11:02:58;;;;;;;1.88;0.90;;;27.40;66.40;;;;;;4991085;28;20113;-54
2023/08/12 11:05:36;;;;;;;1.17;0.40;;;27.40;66.70;;;;;;4989631;28;20050;-53
2023/08/12 11:08:05;;;;;;;0.55;0.55;;;27.20;66.20;;;;;;4990254;28;20046;-53
2023/08/12 11:10:34;;;;;;;0.52;0.52;;;27.10;65.50;;;;;;4991881;28;20042;-52
2023/08/12 11:13:02;;;;;;;0.52;0.52;;;26.90;65.30;;;;;;4991153;28;20117;-51
2023/08/12 11:15:44;;;;;;;1.02;0.43;;;26.70;65.40;;;;;;4992094;28;20696;-53
2023/08/12 11:18:16;;;;;;;0.63;0.63;;;26.50;66.10;;;;;;4990030;28;20116;-53
2023/08/12 11:20:43;;;;;;;0.70;0.70;;;26.30;66.90;;;;;;4991988;28;20046;-51
2023/08/12 11:23:11;;;;;;;0.98;0.70;;;26.20;67.30;;;;;;4984138;28;20121;-51
2023/08/12 11:25:40;;;;;;;0.70;0.70;;;26.10;67.90;;;;;;4994181;28;20445;-51
2023/08/12 11:28:07;;;;;;;1.42;1.23;;;26.00;68.30;;;;;;4985517;28;20592;-53
2023/08/12 11:30:34;;;;;;;0.82;0.82;;;25.90;68.50;;;;;;4976148;28;20065;-53
2023/08/12 11:33:02;;;;;;;0.60;0.60;;;25.80;68.60;;;;;;4987049;28;20523;-52
2023/08/12 11:35:29;;;;;;;0.82;0.82;;;25.80;69.00;;;;;;4977040;28;20043;-53
2023/08/12 11:37:58;;;;;;;0.77;0.77;;;25.80;68.90;;;;;;4993335;28;20053;-53
2023/08/12 11:40:26;;;;;;;0.80;0.80;;;25.80;69.00;;;;;;4989258;28;20096;-53
2023/08/12 11:42:54;;;;;;;1.42;0.90;;;25.80;69.30;;;;;;4989308;28;20049;-53
2023/08/12 11:45:23;;;;;;;1.05;1.05;;;25.70;69.20;;;;;;4989735;28;20042;-52
2023/08/12 11:47:52;;;;;;;1.85;1.38;;;25.70;69.80;;;;;;4985704;28;20057;-52
2023/08/12 11:50:25;;;;;;;1.92;1.83;;;25.80;70.40;;;;;;4982769;28;20045;-52
2023/08/12 11:52:58;;;;;;;2.92;2.72;;;25.90;70.80;;;;;;4988024;28;20050;-52
2023/08/12 11:55:25;;;;;;;2.65;2.45;;;26.00;70.70;;;;;;4987098;28;20117;-52
2023/08/12 11:57:52;;;;;;;3.15;2.90;;;26.10;70.80;;;;;;4986980;28;20463;-52
2023/08/12 12:00:20;;;;;;;3.42;3.20;;;26.30;70.30;;;;;;4988312;28;20050;-53
2023/08/12 12:02:55;;;;;;;3.70;3.30;;;26.40;69.80;;;;;;4987726;28;20441;-54
2023/08/12 12:05:25;;;;;;;3.78;3.47;;;26.60;69.20;;;;;;4981931;28;20046;-53
2023/08/12 12:07:52;;;;;;;3.65;3.35;;;26.60;69.00;;;;;;4986623;28;20050;-53
2023/08/12 12:10:27;;;;;;;4.15;3.70;;;26.60;68.20;;;;;;4989459;28;20042;-53
2023/08/12 12:13:00;;;;;;;3.58;3.28;;;26.60;68.50;;;;;;4990427;28;20424;-53
2023/08/12 12:15:27;;;;;;;3.35;3.15;;;26.60;68.80;;;;;;4983490;28;20050;-49
2023/08/12 12:17:54;;;;;;;4.13;3.83;;;26.60;68.40;;;;;;4995739;28;20069;-53
2023/08/12 12:20:21;;;;;;;4.00;3.70;;;26.70;68.10;;;;;;4985072;28;20046;-53
2023/08/12 12:22:48;;;;;;;4.53;4.22;;;26.70;68.60;;;;;;4988989;28;20121;-53
2023/08/12 12:25:18;;;;;;;4.32;4.03;;;26.70;67.90;;;;;;4987961;28;20452;-54
2023/08/12 12:27:46;;;;;;;4.40;4.10;;;26.60;68.00;;;;;;4991890;28;20050;-54
2023/08/12 12:30:14;;;;;;;4.00;3.70;;;26.60;67.70;;;;;;4978982;28;20492;-54
2023/08/12 12:32:41;;;;;;;3.13;2.92;;;26.60;68.00;;;;;;4992434;28;20042;-53
2023/08/12 12:35:08;;;;;;;3.22;3.03;;;26.60;67.90;;;;;;4991032;28;20046;-51
2023/08/12 12:37:36;;;;;;;2.83;2.63;;;26.60;68.40;;;;;;4990981;28;20424;-53
2023/08/12 12:40:03;;;;;;;3.38;3.08;;;26.60;68.50;;;;;;4990424;28;20088;-53
2023/08/12 12:42:30;;;;;;;3.38;3.17;;;26.70;68.00;;;;;;4988589;28;20038;-54
2023/08/12 12:44:57;;;;;;;2.95;2.72;;;26.80;67.50;;;;;;4989917;28;20043;-53
2023/08/12 12:47:24;;;;;;;3.10;2.90;;;26.90;67.20;;;;;;4988240;28;20038;-53